Preflight/Weather

The current temperature at Deer Valley airport is 11°C  or 52°F

Deer Valley Metar:

KDVT 240953Z AUTO 19003KT 10SM CLR 11/M03 A2983 RMK AO2 SLP088 T01111033

Terminal Area Forecast for Phoenix:

TAF AMD KPHX 240849Z 2409/2512 29004KT P6SM SKC FM241300 14004KT P6SM SKC FM241600 26006KT P6SM SKC FM250300 12004KT P6SM SKC